createdAt,value
2022-08-14T00:02:21.211Z,21.38
2022-08-14T00:04:51.585Z,21.36
2022-08-14T00:07:18.741Z,21.34
2022-08-14T00:10:02.129Z,21.35
2022-08-14T00:12:37.909Z,21.33
2022-08-14T00:15:14.987Z,21.30
2022-08-14T00:17:47.291Z,21.24
2022-08-14T00:20:30.298Z,21.19
2022-08-14T00:23:08.400Z,21.18
2022-08-14T00:25:42.942Z,21.13
2022-08-14T00:28:15.044Z,21.10
2022-08-14T00:30:43.045Z,21.13
2022-08-14T00:33:15.245Z,21.12
2022-08-14T00:36:37.694Z,21.11
2022-08-14T00:38:29.757Z,21.09
2022-08-14T00:40:59.458Z,21.08
2022-08-14T00:43:32.265Z,21.00
2022-08-14T00:46:07.985Z,20.92
2022-08-14T00:48:38.376Z,20.87
2022-08-14T00:51:08.861Z,20.98
2022-08-14T00:53:37.885Z,20.96
2022-08-14T00:56:08.455Z,20.95
2022-08-14T00:58:45.210Z,20.90
2022-08-14T01:01:18.198Z,20.98
2022-08-14T01:03:46.198Z,20.90
2022-08-14T01:06:20.198Z,20.90
2022-08-14T01:08:52.113Z,20.84
2022-08-14T01:11:35.619Z,20.77
2022-08-14T01:14:18.182Z,20.79
2022-08-14T01:16:53.111Z,20.69
2022-08-14T01:19:39.160Z,20.63
2022-08-14T01:22:12.675Z,20.63
2022-08-14T01:24:41.676Z,20.61
2022-08-14T01:27:22.398Z,20.64
2022-08-14T01:30:01.028Z,20.65
2022-08-14T01:32:35.629Z,20.55
2022-08-14T01:35:17.492Z,20.46
2022-08-14T01:37:57.140Z,20.38
2022-08-14T01:40:36.443Z,20.39
2022-08-14T01:43:18.577Z,20.46
2022-08-14T01:45:57.686Z,20.43
2022-08-14T01:48:37.581Z,20.36
2022-08-14T01:51:18.869Z,20.37
2022-08-14T01:53:54.763Z,20.33
2022-08-14T01:56:37.232Z,20.36
2022-08-14T01:59:31.684Z,20.34
2022-08-14T02:02:19.823Z,20.21
2022-08-14T02:04:55.581Z,20.18
2022-08-14T02:07:34.613Z,20.13
2022-08-14T02:10:15.953Z,20.10
2022-08-14T02:12:54.272Z,20.07
2022-08-14T02:15:26.208Z,20.01
2022-08-14T02:17:53.211Z,20.10
2022-08-14T02:20:23.387Z,20.10
2022-08-14T02:22:54.776Z,20.07
2022-08-14T02:25:22.757Z,20.06
2022-08-14T02:28:25.655Z,20.02
2022-08-14T02:30:44.653Z,20.03
2022-08-14T02:33:12.716Z,20.04
2022-08-14T02:35:42.525Z,20.01
2022-08-14T02:38:11.680Z,20.01
2022-08-14T02:40:58.382Z,19.81
2022-08-14T02:43:36.608Z,19.86
2022-08-14T02:46:13.324Z,19.85
2022-08-14T02:49:04.825Z,19.83
2022-08-14T02:51:36.516Z,19.77
2022-08-14T02:54:09.761Z,19.78
2022-08-14T02:57:14.343Z,19.77
2022-08-14T02:59:33.612Z,19.75
2022-08-14T03:02:03.054Z,19.72
2022-08-14T03:04:30.846Z,19.67
2022-08-14T03:07:07.562Z,19.68
2022-08-14T03:10:25.543Z,19.64
2022-08-14T03:12:31.869Z,19.65
2022-08-14T03:15:13.852Z,19.59
2022-08-14T03:17:57.893Z,19.58
2022-08-14T03:20:28.313Z,19.59
2022-08-14T03:23:03.011Z,19.51
2022-08-14T03:25:33.635Z,19.39
2022-08-14T03:28:07.129Z,19.44
2022-08-14T03:30:39.893Z,19.43
2022-08-14T03:33:12.394Z,19.52
2022-08-14T03:36:05.076Z,19.64
2022-08-14T03:39:15.411Z,19.76
2022-08-14T03:41:23.932Z,19.87
2022-08-14T03:43:57.175Z,19.87
2022-08-14T03:46:46.674Z,19.97
2022-08-14T03:49:28.844Z,20.05
2022-08-14T03:52:07.596Z,20.11
2022-08-14T03:54:35.768Z,20.13
2022-08-14T03:57:03.697Z,20.16
2022-08-14T03:59:34.159Z,20.21
2022-08-14T04:02:04.705Z,20.19
2022-08-14T04:04:50.805Z,20.24
2022-08-14T04:07:18.564Z,20.20
2022-08-14T04:09:45.467Z,20.23
2022-08-14T04:12:13.504Z,20.30
2022-08-14T04:14:40.735Z,20.35
2022-08-14T04:17:09.894Z,20.42
2022-08-14T04:19:38.899Z,20.46
2022-08-14T04:22:06.301Z,20.54
2022-08-14T04:24:38.436Z,20.54
2022-08-14T04:27:09.477Z,20.44
2022-08-14T04:29:42.633Z,20.44
2022-08-14T04:33:02.796Z,20.40
2022-08-14T04:35:01.504Z,20.41
2022-08-14T04:37:53.969Z,20.44
2022-08-14T04:40:40.610Z,20.49
2022-08-14T04:43:38.255Z,20.58
2022-08-14T04:46:56.697Z,20.61
2022-08-14T04:49:00.526Z,20.64
2022-08-14T04:51:28.296Z,20.74
2022-08-14T04:53:57.202Z,20.79
2022-08-14T04:56:30.517Z,20.87
2022-08-14T04:59:09.550Z,20.98
2022-08-14T05:01:44.948Z,21.02
2022-08-14T05:04:16.286Z,21.03
2022-08-14T05:06:47.002Z,21.09
2022-08-14T05:09:17.191Z,21.03
2022-08-14T05:11:45.084Z,21.11
2022-08-14T05:14:42.662Z,21.03
2022-08-14T05:17:01.778Z,21.09
2022-08-14T05:19:31.941Z,21.12
2022-08-14T05:22:17.242Z,21.13
2022-08-14T05:24:51.187Z,21.14
2022-08-14T05:27:22.554Z,21.30
2022-08-14T05:29:55.469Z,21.35
2022-08-14T05:32:27.688Z,21.50
2022-08-14T05:35:05.165Z,21.60
2022-08-14T05:37:32.412Z,21.58
2022-08-14T05:40:00.542Z,21.71
2022-08-14T05:42:31.956Z,21.83
2022-08-14T05:45:01.139Z,22.06
2022-08-14T05:47:28.994Z,22.17
2022-08-14T05:50:02.022Z,22.36
2022-08-14T05:52:38.689Z,22.48
2022-08-14T05:55:09.495Z,22.51
2022-08-14T05:58:02.823Z,22.67
2022-08-14T06:00:39.114Z,22.56
2022-08-14T06:03:14.974Z,22.66
2022-08-14T06:05:47.760Z,22.56
2022-08-14T06:08:35.614Z,22.59
2022-08-14T06:11:07.318Z,22.61
2022-08-14T06:13:44.464Z,22.61
2022-08-14T06:16:19.878Z,22.59
2022-08-14T06:18:52.610Z,22.46
2022-08-14T06:21:22.763Z,22.44
2022-08-14T06:23:49.938Z,22.36
2022-08-14T06:26:20.779Z,22.35
2022-08-14T06:28:51.760Z,22.32
2022-08-14T06:31:21.160Z,22.40
2022-08-14T06:35:09.526Z,22.35
2022-08-14T06:36:38.012Z,22.39
2022-08-14T06:39:10.416Z,22.47
2022-08-14T06:41:57.736Z,22.47
2022-08-14T06:44:32.596Z,22.39
2022-08-14T06:47:04.537Z,22.39
2022-08-14T06:49:44.224Z,22.46
2022-08-14T06:52:15.299Z,22.47
2022-08-14T06:54:44.003Z,22.56
2022-08-14T06:57:12.341Z,22.51
2022-08-14T06:59:41.382Z,22.54
2022-08-14T07:02:28.763Z,22.47
2022-08-14T07:05:20.782Z,22.47
2022-08-14T07:07:48.556Z,22.64
2022-08-14T07:10:17.300Z,22.61
2022-08-14T07:13:00.794Z,22.70
2022-08-14T07:15:29.905Z,22.86
2022-08-14T07:17:59.879Z,22.91
2022-08-14T07:20:30.661Z,22.98
2022-08-14T07:23:07.769Z,22.98
2022-08-14T07:25:38.089Z,23.06
2022-08-14T07:28:12.727Z,23.40
2022-08-14T07:30:41.966Z,23.41
2022-08-14T07:33:29.273Z,23.61
2022-08-14T07:36:00.676Z,23.72
2022-08-14T07:38:33.671Z,23.81
2022-08-14T07:41:10.778Z,23.88
2022-08-14T07:43:41.146Z,24.04
2022-08-14T07:46:08.755Z,24.18
2022-08-14T07:48:41.495Z,24.39
2022-08-14T07:51:10.935Z,24.47
2022-08-14T07:53:41.161Z,24.61
2022-08-14T07:56:43.615Z,24.74
2022-08-14T07:58:58.784Z,25.13
2022-08-14T08:01:29.853Z,25.13
2022-08-14T08:04:01.456Z,25.37
2022-08-14T08:06:30.863Z,25.59
2022-08-14T08:09:03.080Z,25.90
2022-08-14T08:11:37.499Z,26.05
2022-08-14T08:14:10.665Z,25.93
2022-08-14T08:16:47.502Z,25.75
2022-08-14T08:19:19.358Z,25.79
2022-08-14T08:21:47.618Z,26.03
2022-08-14T08:24:20.173Z,26.09
2022-08-14T08:26:50.443Z,26.47
2022-08-14T08:29:28.586Z,26.58
2022-08-14T08:32:01.957Z,26.67
2022-08-14T08:34:47.220Z,27.01
2022-08-14T08:37:15.221Z,26.89
2022-08-14T08:40:02.866Z,27.31
2022-08-14T08:42:38.685Z,27.43
2022-08-14T08:45:12.128Z,27.65
2022-08-14T08:47:40.553Z,27.78
2022-08-14T08:50:31.613Z,27.96
2022-08-14T08:53:06.524Z,28.85
2022-08-14T08:55:41.037Z,28.57
2022-08-14T08:58:28.113Z,28.71
2022-08-14T09:01:00.185Z,28.74
2022-08-14T09:03:29.047Z,28.77
2022-08-14T09:06:52.292Z,29.33
2022-08-14T09:08:52.835Z,29.43
2022-08-14T09:11:21.457Z,29.27
2022-08-14T09:13:53.068Z,29.28
2022-08-14T09:16:22.016Z,29.61
2022-08-14T09:18:53.228Z,29.64
2022-08-14T09:21:23.864Z,30.13
2022-08-14T09:24:28.467Z,30.34
2022-08-14T09:26:49.313Z,30.86
2022-08-14T09:29:22.863Z,30.78
2022-08-14T09:31:57.591Z,31.21
2022-08-14T09:34:59.054Z,31.78
2022-08-14T09:37:43.639Z,31.62
2022-08-14T09:40:38.832Z,30.93
2022-08-14T09:43:31.040Z,30.49
2022-08-14T09:46:01.122Z,30.28
2022-08-14T09:48:30.837Z,29.91
2022-08-14T09:54:19.269Z,29.71
2022-08-14T09:56:30.389Z,29.48
2022-08-14T09:59:00.362Z,29.30
2022-08-14T10:01:39.756Z,29.73
2022-08-14T10:04:34.170Z,29.89
2022-08-14T10:07:05.495Z,30.32
2022-08-14T10:09:34.754Z,30.72
2022-08-14T10:12:04.613Z,30.35
2022-08-14T10:14:37.454Z,30.25
2022-08-14T10:17:08.696Z,30.43
2022-08-14T10:19:46.924Z,30.73
2022-08-14T10:23:15.141Z,30.57
2022-08-14T10:25:10.952Z,30.88
2022-08-14T10:27:38.261Z,30.44
2022-08-14T10:30:13.657Z,30.47
2022-08-14T10:32:51.631Z,30.48
2022-08-14T10:35:23.221Z,30.18
2022-08-14T10:37:55.094Z,30.40
2022-08-14T10:40:37.354Z,30.84
2022-08-14T10:43:25.512Z,30.76
2022-08-14T10:46:21.778Z,31.22
2022-08-14T10:49:06.478Z,30.09
2022-08-14T10:51:39.816Z,29.68
2022-08-14T10:54:35.112Z,29.42
2022-08-14T10:57:11.389Z,29.73
2022-08-14T10:59:43.489Z,30.03
2022-08-14T11:02:35.788Z,30.37
2022-08-14T11:05:14.824Z,29.79
2022-08-14T11:08:02.624Z,29.54
2022-08-14T11:10:54.268Z,29.28
2022-08-14T11:13:27.383Z,29.24
2022-08-14T11:16:00.692Z,29.45
2022-08-14T11:18:36.193Z,29.37
2022-08-14T11:21:09.502Z,29.30
2022-08-14T11:23:41.113Z,29.37
2022-08-14T11:26:18.945Z,29.33
2022-08-14T11:28:50.105Z,29.48
2022-08-14T11:31:26.328Z,29.34
2022-08-14T11:34:10.479Z,29.71
2022-08-14T11:37:09.857Z,29.47
2022-08-14T11:39:42.493Z,29.22
2022-08-14T11:42:56.485Z,29.43
2022-08-14T11:45:10.939Z,29.40
2022-08-14T11:48:12.796Z,29.76
2022-08-14T11:50:37.930Z,29.91
2022-08-14T11:53:08.763Z,29.98
2022-08-14T11:55:39.098Z,29.79
2022-08-14T11:58:10.854Z,29.53
2022-08-14T12:00:54.473Z,29.87
2022-08-14T12:03:37.436Z,30.10
2022-08-14T12:06:29.761Z,30.69
2022-08-14T12:09:03.718Z,30.78
2022-08-14T12:11:43.967Z,30.68
2022-08-14T12:14:30.325Z,30.99
2022-08-14T12:17:12.146Z,31.10
2022-08-14T12:19:51.170Z,30.46
2022-08-14T12:22:44.377Z,29.93
2022-08-14T12:25:14.524Z,29.49
2022-08-14T12:27:53.638Z,29.28
2022-08-14T12:30:39.867Z,28.82
2022-08-14T12:33:33.057Z,28.68
2022-08-14T12:36:10.051Z,28.53
2022-08-14T12:38:38.729Z,28.81
2022-08-14T12:41:22.080Z,29.11
2022-08-14T12:43:55.576Z,29.15
2022-08-14T12:46:28.643Z,29.33
2022-08-14T12:49:02.509Z,29.69
2022-08-14T12:51:30.745Z,29.72
2022-08-14T12:54:00.063Z,29.63
2022-08-14T12:56:33.239Z,29.53
2022-08-14T12:59:03.559Z,29.55
2022-08-14T13:01:59.633Z,29.75
2022-08-14T13:04:22.976Z,30.11
2022-08-14T13:06:51.742Z,30.07
2022-08-14T13:09:19.643Z,29.92
2022-08-14T13:11:59.203Z,30.10
2022-08-14T13:14:43.917Z,30.46
2022-08-14T13:17:11.950Z,30.67
2022-08-14T13:19:41.165Z,30.66
2022-08-14T13:22:09.777Z,30.46
2022-08-14T13:24:48.216Z,30.12
2022-08-14T13:27:18.617Z,30.14
2022-08-14T13:29:47.493Z,30.24
2022-08-14T13:32:16.170Z,30.34
2022-08-14T13:34:47.340Z,30.32
2022-08-14T13:37:17.315Z,29.99
2022-08-14T13:39:56.161Z,29.61
2022-08-14T13:42:26.325Z,29.63
2022-08-14T13:44:55.376Z,29.82
2022-08-14T13:47:29.518Z,29.68
2022-08-14T13:50:02.724Z,29.81
2022-08-14T13:52:52.093Z,29.77
2022-08-14T13:55:25.619Z,30.18
2022-08-14T13:58:04.448Z,29.70
2022-08-14T14:00:35.901Z,29.26
2022-08-14T14:03:22.673Z,29.00
2022-08-14T14:05:54.252Z,29.14
2022-08-14T14:08:43.427Z,29.62
2022-08-14T14:11:14.160Z,30.10
2022-08-14T14:13:45.958Z,30.18
2022-08-14T14:16:26.569Z,30.17
2022-08-14T14:19:06.764Z,29.84
2022-08-14T14:21:36.887Z,30.03
2022-08-14T14:24:05.978Z,30.16
2022-08-14T14:26:33.305Z,30.42
2022-08-14T14:29:06.379Z,30.64
2022-08-14T14:31:36.666Z,30.13
2022-08-14T14:34:19.970Z,30.17
2022-08-14T14:37:02.558Z,29.96
2022-08-14T14:39:37.428Z,29.43
2022-08-14T14:42:09.226Z,28.98
2022-08-14T14:44:40.683Z,28.70
2022-08-14T14:47:09.757Z,28.66
2022-08-14T14:49:51.096Z,28.53
2022-08-14T14:52:26.829Z,28.51
2022-08-14T14:54:59.074Z,28.62
2022-08-14T14:57:35.501Z,28.59
2022-08-14T15:00:19.657Z,28.77
2022-08-14T15:02:53.369Z,28.94
2022-08-14T15:05:28.238Z,28.86
2022-08-14T15:07:55.835Z,29.16
2022-08-14T15:10:27.533Z,29.20
2022-08-14T15:13:04.323Z,29.36
2022-08-14T15:15:37.167Z,29.60
2022-08-14T15:18:14.782Z,29.35
2022-08-14T15:20:58.128Z,29.28
2022-08-14T15:23:25.388Z,29.33
2022-08-14T15:26:13.472Z,29.15
2022-08-14T15:29:03.131Z,29.05
2022-08-14T15:31:34.861Z,29.01
2022-08-14T15:34:44.143Z,29.11
2022-08-14T15:37:04.483Z,28.85
2022-08-14T15:39:35.877Z,28.86
2022-08-14T15:42:14.796Z,28.78
2022-08-14T15:44:58.400Z,28.83
2022-08-14T15:47:33.086Z,28.89
2022-08-14T15:50:05.086Z,28.78
2022-08-14T15:52:37.604Z,28.71
2022-08-14T15:55:09.559Z,28.57
2022-08-14T15:57:37.005Z,28.60
2022-08-14T16:00:40.592Z,28.69
2022-08-14T16:03:16.743Z,28.74
2022-08-14T16:05:45.773Z,28.46
2022-08-14T16:08:28.744Z,28.38
2022-08-14T16:10:59.217Z,28.23
2022-08-14T16:13:41.503Z,28.19
2022-08-14T16:16:34.604Z,28.11
2022-08-14T16:19:11.303Z,27.84
2022-08-14T16:22:02.059Z,27.82
2022-08-14T16:24:33.458Z,27.70
2022-08-14T16:27:01.670Z,27.71
2022-08-14T16:29:30.847Z,27.67
2022-08-14T16:32:01.691Z,27.63
2022-08-14T16:34:47.115Z,27.67
2022-08-14T16:37:16.719Z,27.75
2022-08-14T16:39:44.053Z,27.76
2022-08-14T16:43:02.570Z,27.94
2022-08-14T16:45:00.593Z,28.07
2022-08-14T16:47:32.106Z,28.14
2022-08-14T16:50:08.549Z,28.22
2022-08-14T16:52:45.051Z,28.08
2022-08-14T16:55:30.474Z,27.97
2022-08-14T16:57:58.803Z,27.77
2022-08-14T17:00:43.431Z,27.74
2022-08-14T17:03:12.099Z,27.56
2022-08-14T17:05:43.160Z,27.43
2022-08-14T17:08:33.312Z,27.38
2022-08-14T17:11:10.281Z,27.38
2022-08-14T17:13:59.303Z,27.26
2022-08-14T17:16:30.944Z,27.29
2022-08-14T17:19:01.630Z,27.15
2022-08-14T17:21:41.626Z,27.15
2022-08-14T17:24:57.433Z,27.08
2022-08-14T17:27:03.645Z,27.06
2022-08-14T17:29:34.566Z,27.01
2022-08-14T17:32:21.918Z,26.97
2022-08-14T17:34:52.018Z,26.98
2022-08-14T17:37:55.757Z,26.92
2022-08-14T17:40:30.088Z,26.96
2022-08-14T17:43:02.382Z,26.99
2022-08-14T17:45:41.470Z,26.97
2022-08-14T17:49:10.119Z,26.99
2022-08-14T17:51:23.248Z,26.90
2022-08-14T17:53:53.026Z,26.93
2022-08-14T17:56:29.050Z,26.89
2022-08-14T17:59:06.793Z,26.83
2022-08-14T18:01:45.677Z,26.84
2022-08-14T18:04:27.725Z,26.80
2022-08-14T18:07:16.276Z,26.84
2022-08-14T18:09:56.751Z,26.79
2022-08-14T18:12:32.437Z,26.77
2022-08-14T18:15:16.043Z,26.72
2022-08-14T18:17:52.561Z,26.67
2022-08-14T18:21:39.921Z,26.61
2022-08-14T18:23:13.617Z,26.55
2022-08-14T18:25:53.067Z,26.51
2022-08-14T18:28:48.416Z,26.31
2022-08-14T18:31:43.335Z,26.17
2022-08-14T18:34:32.283Z,26.09
2022-08-14T18:37:16.867Z,26.03
2022-08-14T18:40:01.752Z,25.94
2022-08-14T18:42:34.623Z,25.96
2022-08-14T18:45:12.342Z,25.96
2022-08-14T18:50:32.301Z,25.91
2022-08-14T18:53:08.973Z,25.89
2022-08-14T18:55:52.677Z,25.91
2022-08-14T18:58:30.452Z,25.72
2022-08-14T19:01:00.521Z,25.69
2022-08-14T19:03:33.527Z,25.56
2022-08-14T19:06:09.526Z,25.42
2022-08-14T19:08:50.210Z,25.32
2022-08-14T19:11:32.587Z,25.32
2022-08-14T19:14:05.067Z,25.32
2022-08-14T19:16:34.777Z,25.29
2022-08-14T19:19:07.182Z,25.24
2022-08-14T19:21:39.966Z,25.21
2022-08-14T19:24:44.119Z,25.16
2022-08-14T19:27:23.969Z,25.14
2022-08-14T19:30:19.744Z,25.05
2022-08-14T19:32:53.112Z,25.00
2022-08-14T19:35:49.096Z,24.96
2022-08-14T19:38:53.309Z,24.93
2022-08-14T19:41:29.575Z,24.89
2022-08-14T19:44:15.374Z,24.79
2022-08-14T19:47:01.181Z,24.74
2022-08-14T19:50:08.501Z,24.74
2022-08-14T19:52:29.867Z,24.71
2022-08-14T19:54:59.619Z,24.64
2022-08-14T19:57:31.383Z,24.69
2022-08-14T20:00:28.083Z,24.68
2022-08-14T20:03:04.452Z,24.68
2022-08-14T20:05:45.399Z,24.64
2022-08-14T20:11:00.562Z,24.61
2022-08-14T20:11:21.150Z,24.59
2022-08-14T20:14:10.313Z,24.57
2022-08-14T20:16:45.731Z,24.55
2022-08-14T20:19:18.017Z,24.47
2022-08-14T20:22:04.641Z,24.36
2022-08-14T20:24:47.266Z,24.26
2022-08-14T20:27:21.116Z,24.23
2022-08-14T20:30:33.957Z,24.20
2022-08-14T20:33:10.741Z,24.09
2022-08-14T20:35:38.864Z,23.90
2022-08-14T20:38:30.947Z,23.83
2022-08-14T20:41:09.456Z,23.75
2022-08-14T20:43:59.762Z,23.69
2022-08-14T20:46:33.695Z,23.68
2022-08-14T20:49:09.298Z,23.62
2022-08-14T20:51:43.542Z,23.64
2022-08-14T20:54:34.122Z,23.57
2022-08-14T20:57:17.869Z,23.44
2022-08-14T20:59:52.929Z,23.30
2022-08-14T21:02:30.437Z,23.19
2022-08-14T21:05:17.081Z,23.13
2022-08-14T21:07:51.144Z,23.05
2022-08-14T21:10:36.351Z,23.15
2022-08-14T21:14:09.204Z,22.99
2022-08-14T21:15:57.977Z,22.99
2022-08-14T21:18:32.890Z,23.03
2022-08-14T21:21:10.461Z,22.99
2022-08-14T21:23:54.058Z,23.00
2022-08-14T21:26:52.740Z,22.96
2022-08-14T21:29:14.509Z,22.83
2022-08-14T21:31:42.980Z,22.69
2022-08-14T21:34:27.499Z,22.68
2022-08-14T21:37:06.431Z,22.69
2022-08-14T21:39:36.518Z,22.68
2022-08-14T21:42:06.173Z,22.66
2022-08-14T21:44:43.275Z,22.66
2022-08-14T21:47:16.570Z,22.62
2022-08-14T21:49:46.132Z,22.52
2022-08-14T21:52:50.619Z,22.47
2022-08-14T21:55:09.877Z,22.40
2022-08-14T21:57:56.728Z,22.33
2022-08-14T22:00:42.254Z,22.47
2022-08-14T22:03:17.018Z,22.55
2022-08-14T22:05:46.215Z,22.60
2022-08-14T22:08:14.164Z,22.62
2022-08-14T22:10:44.853Z,22.65
2022-08-14T22:13:17.380Z,22.60
2022-08-14T22:15:50.145Z,22.62
2022-08-14T22:18:20.643Z,22.62
2022-08-14T22:20:53.908Z,22.65
2022-08-14T22:23:24.809Z,22.68
2022-08-14T22:25:53.562Z,22.68
2022-08-14T22:28:32.656Z,22.66
2022-08-14T22:31:04.086Z,22.70
2022-08-14T22:33:38.492Z,22.68
2022-08-14T22:36:26.024Z,22.72
2022-08-14T22:38:54.459Z,22.74
2022-08-14T22:41:26.573Z,22.71
2022-08-14T22:44:10.833Z,22.79
2022-08-14T22:46:43.510Z,22.74
2022-08-14T22:49:15.434Z,22.72
2022-08-14T22:51:54.385Z,22.66
2022-08-14T22:54:52.076Z,22.68
2022-08-14T22:57:11.001Z,22.68
2022-08-14T22:59:38.950Z,22.58
2022-08-14T23:02:30.049Z,22.54
2022-08-14T23:04:58.247Z,22.46
2022-08-14T23:09:00.399Z,22.42
2022-08-14T23:10:31.802Z,22.35
2022-08-14T23:13:00.289Z,22.30
2022-08-14T23:15:29.812Z,22.30
2022-08-14T23:17:58.811Z,22.27
2022-08-14T23:20:29.379Z,22.22
2022-08-14T23:22:58.052Z,22.24
2022-08-14T23:25:56.649Z,22.19
2022-08-14T23:28:33.977Z,22.24
2022-08-14T23:31:08.413Z,22.26
2022-08-14T23:33:45.672Z,22.21
2022-08-14T23:36:31.441Z,22.21
2022-08-14T23:39:10.152Z,22.22
2022-08-14T23:41:46.954Z,22.22
2022-08-14T23:44:22.260Z,22.24
2022-08-14T23:46:56.540Z,22.20
2022-08-14T23:49:25.721Z,22.24
2022-08-14T23:52:50.215Z,22.19
2022-08-14T23:54:48.563Z,22.19
2022-08-14T23:57:19.186Z,22.16
2022-08-14T23:59:54.686Z,22.17
